sensor_id;sensor_type;location;lat;lon;timestamp;P1;durP1;ratioP1;P2;durP2;ratioP2
78875;SDS011;68253;52.506;5.486;2023-03-01T00:01:49;9.82;;;4.07;;
78875;SDS011;68253;52.506;5.486;2023-03-01T00:04:16;10.07;;;3.80;;
78875;SDS011;68253;52.506;5.486;2023-03-01T00:06:42;10.60;;;3.72;;
78875;SDS011;68253;52.506;5.486;2023-03-01T00:09:12;9.68;;;4.28;;
78875;SDS011;68253;52.506;5.486;2023-03-01T00:11:39;9.65;;;3.55;;
78875;SDS011;68253;52.506;5.486;2023-03-01T00:14:05;10.75;;;3.50;;
78875;SDS011;68253;52.506;5.486;2023-03-01T00:16:33;10.20;;;3.75;;
78875;SDS011;68253;52.506;5.486;2023-03-01T00:19:05;9.70;;;3.65;;
78875;SDS011;68253;52.506;5.486;2023-03-01T00:21:32;8.70;;;3.55;;
78875;SDS011;68253;52.506;5.486;2023-03-01T00:23:59;8.63;;;3.10;;
78875;SDS011;68253;52.506;5.486;2023-03-01T00:26:25;8.88;;;3.17;;
78875;SDS011;68253;52.506;5.486;2023-03-01T00:28:52;8.30;;;3.05;;
78875;SDS011;68253;52.506;5.486;2023-03-01T00:31:20;9.60;;;3.33;;
78875;SDS011;68253;52.506;5.486;2023-03-01T00:33:48;8.77;;;3.05;;
78875;SDS011;68253;52.506;5.486;2023-03-01T00:36:22;10.50;;;3.28;;
78875;SDS011;68253;52.506;5.486;2023-03-01T00:38:50;8.65;;;3.10;;
78875;SDS011;68253;52.506;5.486;2023-03-01T00:41:17;8.98;;;3.20;;
78875;SDS011;68253;52.506;5.486;2023-03-01T00:43:44;8.75;;;2.97;;
78875;SDS011;68253;52.506;5.486;2023-03-01T00:46:12;9.15;;;3.30;;
78875;SDS011;68253;52.506;5.486;2023-03-01T00:48:40;9.23;;;2.92;;
78875;SDS011;68253;52.506;5.486;2023-03-01T00:51:07;9.23;;;2.85;;
78875;SDS011;68253;52.506;5.486;2023-03-01T00:53:34;8.23;;;2.78;;
78875;SDS011;68253;52.506;5.486;2023-03-01T00:56:01;8.35;;;2.97;;
78875;SDS011;68253;52.506;5.486;2023-03-01T00:58:29;8.55;;;2.88;;
78875;SDS011;68253;52.506;5.486;2023-03-01T01:00:55;8.07;;;2.42;;
78875;SDS011;68253;52.506;5.486;2023-03-01T01:03:22;9.25;;;2.95;;
78875;SDS011;68253;52.506;5.486;2023-03-01T01:05:50;7.75;;;2.70;;
78875;SDS011;68253;52.506;5.486;2023-03-01T01:08:17;7.75;;;2.60;;
78875;SDS011;68253;52.506;5.486;2023-03-01T01:10:44;7.20;;;2.28;;
78875;SDS011;68253;52.506;5.486;2023-03-01T01:13:11;8.15;;;2.70;;
78875;SDS011;68253;52.506;5.486;2023-03-01T01:15:38;7.53;;;2.38;;
78875;SDS011;68253;52.506;5.486;2023-03-01T01:18:04;7.65;;;2.33;;
78875;SDS011;68253;52.506;5.486;2023-03-01T01:20:32;8.48;;;3.03;;
78875;SDS011;68253;52.506;5.486;2023-03-01T01:22:58;8.48;;;2.60;;
78875;SDS011;68253;52.506;5.486;2023-03-01T01:25:25;8.25;;;2.65;;
78875;SDS011;68253;52.506;5.486;2023-03-01T01:27:52;7.00;;;2.30;;
78875;SDS011;68253;52.506;5.486;2023-03-01T01:30:18;8.32;;;2.70;;
78875;SDS011;68253;52.506;5.486;2023-03-01T01:32:44;7.80;;;2.50;;
78875;SDS011;68253;52.506;5.486;2023-03-01T01:35:10;7.75;;;2.63;;
78875;SDS011;68253;52.506;5.486;2023-03-01T01:37:36;7.35;;;2.45;;
78875;SDS011;68253;52.506;5.486;2023-03-01T01:40:02;7.10;;;2.50;;
78875;SDS011;68253;52.506;5.486;2023-03-01T01:42:29;7.82;;;2.60;;
78875;SDS011;68253;52.506;5.486;2023-03-01T01:47:52;7.13;;;2.33;;
78875;SDS011;68253;52.506;5.486;2023-03-01T01:50:23;8.13;;;2.75;;
78875;SDS011;68253;52.506;5.486;2023-03-01T01:52:49;7.07;;;2.17;;
78875;SDS011;68253;52.506;5.486;2023-03-01T01:55:19;8.27;;;2.63;;
78875;SDS011;68253;52.506;5.486;2023-03-01T01:57:49;7.60;;;2.78;;
78875;SDS011;68253;52.506;5.486;2023-03-01T02:00:20;7.90;;;2.42;;
78875;SDS011;68253;52.506;5.486;2023-03-01T02:02:57;7.40;;;2.50;;
78875;SDS011;68253;52.506;5.486;2023-03-01T02:05:36;7.60;;;2.47;;
78875;SDS011;68253;52.506;5.486;2023-03-01T02:08:17;7.55;;;2.42;;
78875;SDS011;68253;52.506;5.486;2023-03-01T02:10:45;7.45;;;2.42;;
78875;SDS011;68253;52.506;5.486;2023-03-01T02:13:13;8.43;;;2.50;;
78875;SDS011;68253;52.506;5.486;2023-03-01T02:15:40;7.07;;;2.20;;
78875;SDS011;68253;52.506;5.486;2023-03-01T02:18:07;8.15;;;2.90;;
78875;SDS011;68253;52.506;5.486;2023-03-01T02:23:27;6.90;;;2.20;;
78875;SDS011;68253;52.506;5.486;2023-03-01T02:28:51;6.35;;;2.20;;
78875;SDS011;68253;52.506;5.486;2023-03-01T02:31:18;7.00;;;2.38;;
78875;SDS011;68253;52.506;5.486;2023-03-01T02:34:04;7.93;;;2.50;;
78875;SDS011;68253;52.506;5.486;2023-03-01T02:36:36;8.30;;;2.85;;
78875;SDS011;68253;52.506;5.486;2023-03-01T02:39:12;7.00;;;1.98;;
78875;SDS011;68253;52.506;5.486;2023-03-01T02:41:46;7.10;;;2.25;;
78875;SDS011;68253;52.506;5.486;2023-03-01T02:44:15;7.68;;;2.25;;
78875;SDS011;68253;52.506;5.486;2023-03-01T02:46:46;6.93;;;2.55;;
78875;SDS011;68253;52.506;5.486;2023-03-01T02:49:22;7.63;;;2.35;;
78875;SDS011;68253;52.506;5.486;2023-03-01T02:54:58;7.47;;;2.08;;
78875;SDS011;68253;52.506;5.486;2023-03-01T02:57:30;6.43;;;2.10;;
78875;SDS011;68253;52.506;5.486;2023-03-01T02:59:59;6.50;;;1.98;;
78875;SDS011;68253;52.506;5.486;2023-03-01T03:02:33;7.80;;;2.67;;
78875;SDS011;68253;52.506;5.486;2023-03-01T03:05:12;7.25;;;2.20;;
78875;SDS011;68253;52.506;5.486;2023-03-01T03:07:44;8.52;;;2.60;;
78875;SDS011;68253;52.506;5.486;2023-03-01T03:10:13;9.27;;;2.38;;
78875;SDS011;68253;52.506;5.486;2023-03-01T03:12:48;7.38;;;2.20;;
78875;SDS011;68253;52.506;5.486;2023-03-01T03:15:16;6.18;;;1.80;;
78875;SDS011;68253;52.506;5.486;2023-03-01T03:17:43;6.05;;;1.85;;
78875;SDS011;68253;52.506;5.486;2023-03-01T03:20:10;6.88;;;2.20;;
78875;SDS011;68253;52.506;5.486;2023-03-01T03:22:40;7.40;;;2.50;;
78875;SDS011;68253;52.506;5.486;2023-03-01T03:25:07;6.82;;;2.20;;
78875;SDS011;68253;52.506;5.486;2023-03-01T03:27:37;6.75;;;2.25;;
78875;SDS011;68253;52.506;5.486;2023-03-01T03:30:05;6.80;;;1.90;;
78875;SDS011;68253;52.506;5.486;2023-03-01T03:32:35;6.82;;;2.15;;
78875;SDS011;68253;52.506;5.486;2023-03-01T03:35:02;5.90;;;1.88;;
78875;SDS011;68253;52.506;5.486;2023-03-01T03:37:38;6.15;;;2.00;;
78875;SDS011;68253;52.506;5.486;2023-03-01T03:40:24;6.88;;;2.00;;
78875;SDS011;68253;52.506;5.486;2023-03-01T03:42:51;6.53;;;1.88;;
78875;SDS011;68253;52.506;5.486;2023-03-01T03:45:17;7.28;;;2.17;;
78875;SDS011;68253;52.506;5.486;2023-03-01T03:47:43;7.07;;;2.00;;
78875;SDS011;68253;52.506;5.486;2023-03-01T03:50:10;6.82;;;2.03;;
78875;SDS011;68253;52.506;5.486;2023-03-01T03:52:40;7.00;;;2.17;;
78875;SDS011;68253;52.506;5.486;2023-03-01T03:55:07;7.07;;;2.00;;
78875;SDS011;68253;52.506;5.486;2023-03-01T03:57:38;7.28;;;2.10;;
78875;SDS011;68253;52.506;5.486;2023-03-01T04:00:05;6.93;;;2.35;;
78875;SDS011;68253;52.506;5.486;2023-03-01T04:02:39;7.00;;;2.03;;
78875;SDS011;68253;52.506;5.486;2023-03-01T04:05:06;5.68;;;1.73;;
78875;SDS011;68253;52.506;5.486;2023-03-01T04:07:34;5.35;;;1.73;;
78875;SDS011;68253;52.506;5.486;2023-03-01T04:10:04;7.55;;;2.15;;
78875;SDS011;68253;52.506;5.486;2023-03-01T04:12:33;5.68;;;1.80;;
78875;SDS011;68253;52.506;5.486;2023-03-01T04:15:00;6.00;;;1.80;;
78875;SDS011;68253;52.506;5.486;2023-03-01T04:17:40;6.50;;;2.17;;
78875;SDS011;68253;52.506;5.486;2023-03-01T04:20:10;6.18;;;1.70;;
78875;SDS011;68253;52.506;5.486;2023-03-01T04:22:38;7.07;;;2.05;;
78875;SDS011;68253;52.506;5.486;2023-03-01T04:25:06;5.50;;;1.60;;
78875;SDS011;68253;52.506;5.486;2023-03-01T04:27:33;5.90;;;1.90;;
78875;SDS011;68253;52.506;5.486;2023-03-01T04:29:59;5.90;;;1.90;;
78875;SDS011;68253;52.506;5.486;2023-03-01T04:32:26;4.57;;;1.50;;
78875;SDS011;68253;52.506;5.486;2023-03-01T04:34:52;5.88;;;1.80;;
78875;SDS011;68253;52.506;5.486;2023-03-01T04:37:18;6.00;;;1.70;;
78875;SDS011;68253;52.506;5.486;2023-03-01T04:39:44;6.20;;;1.75;;
78875;SDS011;68253;52.506;5.486;2023-03-01T04:42:11;6.43;;;1.83;;
78875;SDS011;68253;52.506;5.486;2023-03-01T04:44:37;5.60;;;1.83;;
78875;SDS011;68253;52.506;5.486;2023-03-01T04:47:03;6.07;;;2.05;;
78875;SDS011;68253;52.506;5.486;2023-03-01T04:49:29;6.65;;;1.90;;
78875;SDS011;68253;52.506;5.486;2023-03-01T04:51:56;5.03;;;1.80;;
78875;SDS011;68253;52.506;5.486;2023-03-01T04:54:27;5.47;;;1.88;;
78875;SDS011;68253;52.506;5.486;2023-03-01T04:56:54;6.38;;;1.70;;
78875;SDS011;68253;52.506;5.486;2023-03-01T04:59:20;5.80;;;1.88;;
78875;SDS011;68253;52.506;5.486;2023-03-01T05:01:50;5.65;;;1.80;;
78875;SDS011;68253;52.506;5.486;2023-03-01T05:04:17;4.57;;;1.75;;
78875;SDS011;68253;52.506;5.486;2023-03-01T05:06:44;6.22;;;1.90;;
78875;SDS011;68253;52.506;5.486;2023-03-01T05:09:10;5.57;;;1.73;;
78875;SDS011;68253;52.506;5.486;2023-03-01T05:11:37;7.07;;;2.00;;
78875;SDS011;68253;52.506;5.486;2023-03-01T05:14:04;6.40;;;2.00;;
78875;SDS011;68253;52.506;5.486;2023-03-01T05:16:31;6.35;;;1.88;;
78875;SDS011;68253;52.506;5.486;2023-03-01T05:18:58;4.80;;;1.63;;
78875;SDS011;68253;52.506;5.486;2023-03-01T05:21:25;5.40;;;1.70;;
78875;SDS011;68253;52.506;5.486;2023-03-01T05:23:51;6.28;;;1.73;;
78875;SDS011;68253;52.506;5.486;2023-03-01T05:26:18;6.10;;;1.75;;
78875;SDS011;68253;52.506;5.486;2023-03-01T05:28:47;6.47;;;1.63;;
78875;SDS011;68253;52.506;5.486;2023-03-01T05:31:13;5.15;;;1.63;;
78875;SDS011;68253;52.506;5.486;2023-03-01T05:33:40;5.95;;;1.88;;
78875;SDS011;68253;52.506;5.486;2023-03-01T05:36:07;5.43;;;1.70;;
78875;SDS011;68253;52.506;5.486;2023-03-01T05:38:35;5.57;;;1.70;;
78875;SDS011;68253;52.506;5.486;2023-03-01T05:41:01;5.03;;;1.70;;
78875;SDS011;68253;52.506;5.486;2023-03-01T05:43:29;5.20;;;1.70;;
78875;SDS011;68253;52.506;5.486;2023-03-01T05:45:59;5.13;;;1.60;;
78875;SDS011;68253;52.506;5.486;2023-03-01T05:48:25;4.95;;;1.70;;
78875;SDS011;68253;52.506;5.486;2023-03-01T05:50:51;5.57;;;1.77;;
78875;SDS011;68253;52.506;5.486;2023-03-01T05:53:18;5.78;;;1.80;;
78875;SDS011;68253;52.506;5.486;2023-03-01T05:55:47;6.13;;;1.88;;
78875;SDS011;68253;52.506;5.486;2023-03-01T05:58:14;5.13;;;1.58;;
78875;SDS011;68253;52.506;5.486;2023-03-01T06:00:42;4.97;;;1.67;;
78875;SDS011;68253;52.506;5.486;2023-03-01T06:03:11;6.20;;;1.77;;
78875;SDS011;68253;52.506;5.486;2023-03-01T06:05:39;5.55;;;1.60;;
78875;SDS011;68253;52.506;5.486;2023-03-01T06:08:05;5.13;;;1.60;;
78875;SDS011;68253;52.506;5.486;2023-03-01T06:10:32;6.18;;;1.63;;
78875;SDS011;68253;52.506;5.486;2023-03-01T06:12:58;6.20;;;1.77;;
78875;SDS011;68253;52.506;5.486;2023-03-01T06:15:25;6.18;;;1.90;;
78875;SDS011;68253;52.506;5.486;2023-03-01T06:17:53;5.88;;;2.00;;
78875;SDS011;68253;52.506;5.486;2023-03-01T06:20:24;4.90;;;1.67;;
78875;SDS011;68253;52.506;5.486;2023-03-01T06:22:51;6.22;;;1.90;;
78875;SDS011;68253;52.506;5.486;2023-03-01T06:25:19;4.80;;;1.70;;
78875;SDS011;68253;52.506;5.486;2023-03-01T06:27:47;5.60;;;1.65;;
78875;SDS011;68253;52.506;5.486;2023-03-01T06:30:15;5.75;;;1.98;;
78875;SDS011;68253;52.506;5.486;2023-03-01T06:32:42;5.35;;;1.60;;
78875;SDS011;68253;52.506;5.486;2023-03-01T06:35:09;5.25;;;1.67;;
78875;SDS011;68253;52.506;5.486;2023-03-01T06:37:36;5.75;;;1.63;;
78875;SDS011;68253;52.506;5.486;2023-03-01T06:40:03;5.00;;;1.63;;
78875;SDS011;68253;52.506;5.486;2023-03-01T06:42:34;5.57;;;1.70;;
78875;SDS011;68253;52.506;5.486;2023-03-01T06:45:01;6.18;;;1.80;;
78875;SDS011;68253;52.506;5.486;2023-03-01T06:47:28;5.60;;;1.92;;
78875;SDS011;68253;52.506;5.486;2023-03-01T06:49:54;4.80;;;1.60;;
78875;SDS011;68253;52.506;5.486;2023-03-01T06:52:20;4.93;;;1.60;;
78875;SDS011;68253;52.506;5.486;2023-03-01T06:54:46;4.47;;;1.60;;
78875;SDS011;68253;52.506;5.486;2023-03-01T06:57:12;4.38;;;1.42;;
78875;SDS011;68253;52.506;5.486;2023-03-01T06:59:39;4.75;;;1.50;;
78875;SDS011;68253;52.506;5.486;2023-03-01T07:02:05;5.47;;;1.73;;
78875;SDS011;68253;52.506;5.486;2023-03-01T07:04:31;4.40;;;1.52;;
78875;SDS011;68253;52.506;5.486;2023-03-01T07:06:57;5.57;;;1.70;;
78875;SDS011;68253;52.506;5.486;2023-03-01T07:09:24;4.43;;;1.80;;
78875;SDS011;68253;52.506;5.486;2023-03-01T07:11:50;4.55;;;1.40;;
78875;SDS011;68253;52.506;5.486;2023-03-01T07:14:16;4.57;;;1.30;;
78875;SDS011;68253;52.506;5.486;2023-03-01T07:16:42;4.68;;;1.52;;
78875;SDS011;68253;52.506;5.486;2023-03-01T07:19:08;4.53;;;1.42;;
78875;SDS011;68253;52.506;5.486;2023-03-01T07:21:34;5.07;;;1.50;;
78875;SDS011;68253;52.506;5.486;2023-03-01T07:24:00;4.57;;;1.40;;
78875;SDS011;68253;52.506;5.486;2023-03-01T07:26:27;4.57;;;1.30;;
78875;SDS011;68253;52.506;5.486;2023-03-01T07:28:53;4.30;;;1.40;;
78875;SDS011;68253;52.506;5.486;2023-03-01T07:31:19;4.25;;;1.30;;
78875;SDS011;68253;52.506;5.486;2023-03-01T07:33:45;4.70;;;1.42;;
78875;SDS011;68253;52.506;5.486;2023-03-01T07:36:11;4.15;;;1.40;;
78875;SDS011;68253;52.506;5.486;2023-03-01T07:38:37;4.90;;;1.65;;
78875;SDS011;68253;52.506;5.486;2023-03-01T07:41:03;4.05;;;1.33;;
78875;SDS011;68253;52.506;5.486;2023-03-01T07:43:31;5.35;;;1.60;;
78875;SDS011;68253;52.506;5.486;2023-03-01T07:46:00;4.07;;;1.30;;
78875;SDS011;68253;52.506;5.486;2023-03-01T07:48:28;3.80;;;1.50;;
78875;SDS011;68253;52.506;5.486;2023-03-01T07:50:59;4.15;;;1.40;;
78875;SDS011;68253;52.506;5.486;2023-03-01T07:53:26;4.82;;;1.40;;
78875;SDS011;68253;52.506;5.486;2023-03-01T07:56:03;3.72;;;1.20;;
78875;SDS011;68253;52.506;5.486;2023-03-01T07:58:30;3.85;;;1.30;;
78875;SDS011;68253;52.506;5.486;2023-03-01T08:01:01;3.47;;;1.17;;
78875;SDS011;68253;52.506;5.486;2023-03-01T08:03:28;4.18;;;1.40;;
78875;SDS011;68253;52.506;5.486;2023-03-01T08:05:54;4.32;;;1.35;;
78875;SDS011;68253;52.506;5.486;2023-03-01T08:08:20;4.28;;;1.30;;
78875;SDS011;68253;52.506;5.486;2023-03-01T08:10:46;3.72;;;1.15;;
78875;SDS011;68253;52.506;5.486;2023-03-01T08:13:13;4.40;;;1.30;;
78875;SDS011;68253;52.506;5.486;2023-03-01T08:15:39;4.05;;;1.35;;
78875;SDS011;68253;52.506;5.486;2023-03-01T08:18:05;3.70;;;1.27;;
78875;SDS011;68253;52.506;5.486;2023-03-01T08:20:32;5.22;;;1.67;;
78875;SDS011;68253;52.506;5.486;2023-03-01T08:22:58;4.50;;;1.42;;
78875;SDS011;68253;52.506;5.486;2023-03-01T08:25:24;3.88;;;1.30;;
78875;SDS011;68253;52.506;5.486;2023-03-01T08:27:50;4.57;;;1.40;;
78875;SDS011;68253;52.506;5.486;2023-03-01T08:30:16;3.35;;;1.25;;
78875;SDS011;68253;52.506;5.486;2023-03-01T08:32:42;6.57;;;1.80;;
78875;SDS011;68253;52.506;5.486;2023-03-01T08:35:08;4.57;;;1.27;;
78875;SDS011;68253;52.506;5.486;2023-03-01T08:37:35;3.70;;;1.30;;
78875;SDS011;68253;52.506;5.486;2023-03-01T08:40:01;3.97;;;1.30;;
78875;SDS011;68253;52.506;5.486;2023-03-01T08:42:28;4.13;;;1.20;;
78875;SDS011;68253;52.506;5.486;2023-03-01T08:44:54;3.38;;;1.23;;
78875;SDS011;68253;52.506;5.486;2023-03-01T08:47:22;4.28;;;1.20;;
78875;SDS011;68253;52.506;5.486;2023-03-01T08:49:49;4.55;;;1.50;;
78875;SDS011;68253;52.506;5.486;2023-03-01T08:52:16;3.60;;;1.00;;
78875;SDS011;68253;52.506;5.486;2023-03-01T08:54:42;3.40;;;1.00;;
78875;SDS011;68253;52.506;5.486;2023-03-01T08:57:08;3.65;;;1.17;;
78875;SDS011;68253;52.506;5.486;2023-03-01T08:59:35;3.63;;;1.10;;
78875;SDS011;68253;52.506;5.486;2023-03-01T09:02:03;4.07;;;1.10;;
78875;SDS011;68253;52.506;5.486;2023-03-01T09:04:30;2.72;;;0.80;;
78875;SDS011;68253;52.506;5.486;2023-03-01T09:06:57;5.45;;;1.10;;
78875;SDS011;68253;52.506;5.486;2023-03-01T09:09:23;3.03;;;0.80;;
78875;SDS011;68253;52.506;5.486;2023-03-01T09:11:49;3.92;;;1.10;;
78875;SDS011;68253;52.506;5.486;2023-03-01T09:14:16;2.55;;;0.85;;
78875;SDS011;68253;52.506;5.486;2023-03-01T09:16:42;3.28;;;0.80;;
78875;SDS011;68253;52.506;5.486;2023-03-01T09:19:08;4.82;;;1.00;;
78875;SDS011;68253;52.506;5.486;2023-03-01T09:21:34;2.55;;;0.93;;
78875;SDS011;68253;52.506;5.486;2023-03-01T09:24:00;4.07;;;0.93;;
78875;SDS011;68253;52.506;5.486;2023-03-01T09:26:27;3.80;;;1.10;;
78875;SDS011;68253;52.506;5.486;2023-03-01T09:28:53;3.30;;;0.93;;
78875;SDS011;68253;52.506;5.486;2023-03-01T09:31:21;4.97;;;1.00;;
78875;SDS011;68253;52.506;5.486;2023-03-01T09:33:49;5.13;;;1.20;;
78875;SDS011;68253;52.506;5.486;2023-03-01T09:36:19;3.25;;;0.90;;
78875;SDS011;68253;52.506;5.486;2023-03-01T09:38:47;3.85;;;1.15;;
78875;SDS011;68253;52.506;5.486;2023-03-01T09:46:11;4.28;;;1.17;;
78875;SDS011;68253;52.506;5.486;2023-03-01T09:48:52;2.80;;;1.00;;
78875;SDS011;68253;52.506;5.486;2023-03-01T09:51:23;3.28;;;0.95;;
78875;SDS011;68253;52.506;5.486;2023-03-01T09:54:00;4.05;;;1.10;;
78875;SDS011;68253;52.506;5.486;2023-03-01T09:56:36;3.63;;;0.90;;
78875;SDS011;68253;52.506;5.486;2023-03-01T09:59:49;3.72;;;0.95;;
78875;SDS011;68253;52.506;5.486;2023-03-01T10:02:39;5.07;;;1.15;;
78875;SDS011;68253;52.506;5.486;2023-03-01T10:10:33;3.90;;;1.00;;
78875;SDS011;68253;52.506;5.486;2023-03-01T10:13:04;4.07;;;1.13;;
78875;SDS011;68253;52.506;5.486;2023-03-01T10:15:45;4.20;;;1.23;;
78875;SDS011;68253;52.506;5.486;2023-03-01T10:18:16;3.72;;;1.00;;
78875;SDS011;68253;52.506;5.486;2023-03-01T10:20:53;3.30;;;1.00;;
78875;SDS011;68253;52.506;5.486;2023-03-01T10:23:26;4.13;;;1.17;;
78875;SDS011;68253;52.506;5.486;2023-03-01T10:28:23;4.07;;;1.20;;
78875;SDS011;68253;52.506;5.486;2023-03-01T10:30:53;4.15;;;1.00;;
78875;SDS011;68253;52.506;5.486;2023-03-01T10:33:26;4.55;;;1.15;;
78875;SDS011;68253;52.506;5.486;2023-03-01T10:35:56;5.07;;;1.17;;
78875;SDS011;68253;52.506;5.486;2023-03-01T10:38:22;3.65;;;1.10;;
78875;SDS011;68253;52.506;5.486;2023-03-01T10:40:50;3.92;;;1.00;;
78875;SDS011;68253;52.506;5.486;2023-03-01T10:43:25;5.00;;;1.15;;
78875;SDS011;68253;52.506;5.486;2023-03-01T10:45:55;4.82;;;1.23;;
78875;SDS011;68253;52.506;5.486;2023-03-01T10:48:22;3.80;;;1.08;;
78875;SDS011;68253;52.506;5.486;2023-03-01T10:53:24;3.50;;;1.17;;
78875;SDS011;68253;52.506;5.486;2023-03-01T10:56:03;4.60;;;1.23;;
78875;SDS011;68253;52.506;5.486;2023-03-01T10:58:30;4.35;;;1.13;;
78875;SDS011;68253;52.506;5.486;2023-03-01T11:00:58;3.28;;;1.00;;
78875;SDS011;68253;52.506;5.486;2023-03-01T11:03:55;4.35;;;1.23;;
78875;SDS011;68253;52.506;5.486;2023-03-01T11:06:31;4.80;;;1.05;;
78875;SDS011;68253;52.506;5.486;2023-03-01T11:09:12;2.92;;;0.90;;
78875;SDS011;68253;52.506;5.486;2023-03-01T11:11:53;3.28;;;0.85;;
78875;SDS011;68253;52.506;5.486;2023-03-01T11:14:21;2.60;;;0.80;;
78875;SDS011;68253;52.506;5.486;2023-03-01T11:16:59;3.13;;;0.95;;
78875;SDS011;68253;52.506;5.486;2023-03-01T11:20:00;2.78;;;0.77;;
78875;SDS011;68253;52.506;5.486;2023-03-01T11:22:35;4.45;;;0.90;;
78875;SDS011;68253;52.506;5.486;2023-03-01T11:25:01;3.97;;;0.95;;
78875;SDS011;68253;52.506;5.486;2023-03-01T11:27:29;3.35;;;1.00;;
78875;SDS011;68253;52.506;5.486;2023-03-01T11:33:04;3.40;;;0.80;;
78875;SDS011;68253;52.506;5.486;2023-03-01T11:36:03;3.33;;;0.93;;
78875;SDS011;68253;52.506;5.486;2023-03-01T11:38:34;4.07;;;1.00;;
78875;SDS011;68253;52.506;5.486;2023-03-01T11:41:06;2.92;;;0.80;;
78875;SDS011;68253;52.506;5.486;2023-03-01T11:46:49;3.28;;;0.80;;
78875;SDS011;68253;52.506;5.486;2023-03-01T12:08:45;2.80;;;0.88;;
78875;SDS011;68253;52.506;5.486;2023-03-01T12:11:28;3.10;;;1.02;;
78875;SDS011;68253;52.506;5.486;2023-03-01T12:25:45;3.83;;;0.82;;
78875;SDS011;68253;52.506;5.486;2023-03-01T12:31:05;4.40;;;0.80;;
78875;SDS011;68253;52.506;5.486;2023-03-01T12:42:10;3.95;;;0.85;;
78875;SDS011;68253;52.506;5.486;2023-03-01T12:47:22;5.72;;;1.02;;
78875;SDS011;68253;52.506;5.486;2023-03-01T12:50:12;3.08;;;0.70;;
78875;SDS011;68253;52.506;5.486;2023-03-01T12:53:07;3.50;;;0.80;;
78875;SDS011;68253;52.506;5.486;2023-03-01T12:55:41;3.95;;;0.90;;
78875;SDS011;68253;52.506;5.486;2023-03-01T13:11:57;4.10;;;0.90;;
78875;SDS011;68253;52.506;5.486;2023-03-01T13:16:50;3.92;;;0.98;;
78875;SDS011;68253;52.506;5.486;2023-03-01T13:21:47;6.35;;;1.20;;
78875;SDS011;68253;52.506;5.486;2023-03-01T13:24:35;5.57;;;0.95;;
78875;SDS011;68253;52.506;5.486;2023-03-01T13:32:24;3.88;;;0.80;;
78875;SDS011;68253;52.506;5.486;2023-03-01T13:37:43;5.47;;;0.80;;
78875;SDS011;68253;52.506;5.486;2023-03-01T13:42:44;4.15;;;0.90;;
78875;SDS011;68253;52.506;5.486;2023-03-01T13:45:16;6.93;;;1.20;;
78875;SDS011;68253;52.506;5.486;2023-03-01T13:48:01;3.80;;;0.85;;
78875;SDS011;68253;52.506;5.486;2023-03-01T13:50:33;4.55;;;1.00;;
78875;SDS011;68253;52.506;5.486;2023-03-01T13:53:04;5.88;;;1.00;;
78875;SDS011;68253;52.506;5.486;2023-03-01T13:55:36;4.65;;;1.00;;
78875;SDS011;68253;52.506;5.486;2023-03-01T13:58:18;4.53;;;0.93;;
78875;SDS011;68253;52.506;5.486;2023-03-01T14:00:45;4.97;;;1.02;;
78875;SDS011;68253;52.506;5.486;2023-03-01T14:03:13;3.33;;;0.80;;
78875;SDS011;68253;52.506;5.486;2023-03-01T14:05:57;4.30;;;1.30;;
78875;SDS011;68253;52.506;5.486;2023-03-01T14:08:28;3.03;;;0.70;;
78875;SDS011;68253;52.506;5.486;2023-03-01T14:17:04;3.53;;;0.90;;
78875;SDS011;68253;52.506;5.486;2023-03-01T14:19:54;4.32;;;0.90;;
78875;SDS011;68253;52.506;5.486;2023-03-01T14:22:28;4.18;;;0.93;;
78875;SDS011;68253;52.506;5.486;2023-03-01T14:25:02;4.55;;;1.00;;
78875;SDS011;68253;52.506;5.486;2023-03-01T14:27:43;2.47;;;0.70;;
78875;SDS011;68253;52.506;5.486;2023-03-01T14:30:13;3.85;;;0.90;;
78875;SDS011;68253;52.506;5.486;2023-03-01T14:32:51;2.88;;;0.70;;
78875;SDS011;68253;52.506;5.486;2023-03-01T14:35:23;3.55;;;1.00;;
78875;SDS011;68253;52.506;5.486;2023-03-01T14:37:57;3.80;;;0.90;;
78875;SDS011;68253;52.506;5.486;2023-03-01T14:40:25;1.63;;;0.65;;
78875;SDS011;68253;52.506;5.486;2023-03-01T14:42:55;2.67;;;0.82;;
78875;SDS011;68253;52.506;5.486;2023-03-01T14:45:24;2.50;;;0.80;;
78875;SDS011;68253;52.506;5.486;2023-03-01T14:47:52;6.28;;;1.98;;
78875;SDS011;68253;52.506;5.486;2023-03-01T14:50:21;8.27;;;2.75;;
78875;SDS011;68253;52.506;5.486;2023-03-01T14:52:50;8.10;;;3.00;;
78875;SDS011;68253;52.506;5.486;2023-03-01T14:55:21;8.35;;;2.92;;
78875;SDS011;68253;52.506;5.486;2023-03-01T14:58:04;8.80;;;2.78;;
78875;SDS011;68253;52.506;5.486;2023-03-01T15:00:32;7.97;;;2.47;;
78875;SDS011;68253;52.506;5.486;2023-03-01T15:03:13;8.07;;;2.90;;
78875;SDS011;68253;52.506;5.486;2023-03-01T15:05:45;7.88;;;2.75;;
78875;SDS011;68253;52.506;5.486;2023-03-01T15:08:18;7.47;;;2.58;;
78875;SDS011;68253;52.506;5.486;2023-03-01T15:13:34;7.72;;;2.85;;
78875;SDS011;68253;52.506;5.486;2023-03-01T15:16:02;8.45;;;2.88;;
78875;SDS011;68253;52.506;5.486;2023-03-01T15:18:33;8.93;;;3.08;;
78875;SDS011;68253;52.506;5.486;2023-03-01T15:21:14;8.05;;;2.85;;
78875;SDS011;68253;52.506;5.486;2023-03-01T15:23:47;7.45;;;2.80;;
78875;SDS011;68253;52.506;5.486;2023-03-01T15:26:25;9.18;;;3.15;;
78875;SDS011;68253;52.506;5.486;2023-03-01T15:29:15;7.68;;;2.72;;
78875;SDS011;68253;52.506;5.486;2023-03-01T15:31:52;7.88;;;2.97;;
78875;SDS011;68253;52.506;5.486;2023-03-01T15:34:30;7.40;;;2.72;;
78875;SDS011;68253;52.506;5.486;2023-03-01T15:36:59;8.15;;;2.90;;
78875;SDS011;68253;52.506;5.486;2023-03-01T15:39:32;8.20;;;3.17;;
78875;SDS011;68253;52.506;5.486;2023-03-01T15:42:03;8.13;;;3.05;;
78875;SDS011;68253;52.506;5.486;2023-03-01T15:44:31;8.25;;;3.15;;
78875;SDS011;68253;52.506;5.486;2023-03-01T15:52:08;9.02;;;3.47;;
78875;SDS011;68253;52.506;5.486;2023-03-01T15:54:39;9.05;;;3.53;;
78875;SDS011;68253;52.506;5.486;2023-03-01T15:57:13;8.77;;;3.60;;
78875;SDS011;68253;52.506;5.486;2023-03-01T15:59:41;8.90;;;3.33;;
78875;SDS011;68253;52.506;5.486;2023-03-01T16:02:10;9.00;;;3.90;;
78875;SDS011;68253;52.506;5.486;2023-03-01T16:04:38;9.27;;;3.38;;
78875;SDS011;68253;52.506;5.486;2023-03-01T16:07:05;9.23;;;3.70;;
78875;SDS011;68253;52.506;5.486;2023-03-01T16:09:31;10.15;;;3.13;;
78875;SDS011;68253;52.506;5.486;2023-03-01T16:11:58;8.73;;;3.60;;
78875;SDS011;68253;52.506;5.486;2023-03-01T16:14:24;8.10;;;3.30;;
78875;SDS011;68253;52.506;5.486;2023-03-01T16:16:50;8.98;;;4.13;;
78875;SDS011;68253;52.506;5.486;2023-03-01T16:19:16;9.00;;;3.50;;
78875;SDS011;68253;52.506;5.486;2023-03-01T16:21:42;8.90;;;3.90;;
78875;SDS011;68253;52.506;5.486;2023-03-01T16:24:12;8.32;;;3.50;;
78875;SDS011;68253;52.506;5.486;2023-03-01T16:26:39;8.82;;;3.40;;
78875;SDS011;68253;52.506;5.486;2023-03-01T16:29:05;7.82;;;2.97;;
78875;SDS011;68253;52.506;5.486;2023-03-01T16:31:31;7.70;;;2.53;;
78875;SDS011;68253;52.506;5.486;2023-03-01T16:33:58;6.03;;;2.08;;
78875;SDS011;68253;52.506;5.486;2023-03-01T16:36:25;8.68;;;2.30;;
78875;SDS011;68253;52.506;5.486;2023-03-01T16:38:54;6.57;;;2.00;;
78875;SDS011;68253;52.506;5.486;2023-03-01T16:41:23;8.00;;;2.05;;
78875;SDS011;68253;52.506;5.486;2023-03-01T16:43:49;6.05;;;1.70;;
78875;SDS011;68253;52.506;5.486;2023-03-01T16:46:17;5.88;;;1.90;;
78875;SDS011;68253;52.506;5.486;2023-03-01T16:48:45;7.47;;;2.00;;
78875;SDS011;68253;52.506;5.486;2023-03-01T16:51:11;8.43;;;2.50;;
78875;SDS011;68253;52.506;5.486;2023-03-01T16:53:38;10.63;;;6.50;;
78875;SDS011;68253;52.506;5.486;2023-03-01T16:56:06;38.92;;;12.23;;
78875;SDS011;68253;52.506;5.486;2023-03-01T16:58:34;19.63;;;8.20;;
78875;SDS011;68253;52.506;5.486;2023-03-01T17:01:07;17.50;;;5.97;;
78875;SDS011;68253;52.506;5.486;2023-03-01T17:03:41;11.50;;;3.83;;
78875;SDS011;68253;52.506;5.486;2023-03-01T17:06:09;11.55;;;3.75;;